Time;durP1;ratioP1;P1;durP2;ratioP2;P2;SDS_P1;SDS_P2;PMS_P1;PMS_P2;Temp;Humidity;BMP_temperature;BMP_pressure;BME280_temperature;BME280_humidity;BME280_pressure;Samples;Min_cycle;Max_cycle;Signal;HPM_P1;HPM_P2
2021/10/13 00:01:04;;;;;;;5.07;4.47;;;6.00;1.00;;;;;;5041707;28;20195;-83
2021/10/13 00:03:30;;;;;;;5.20;4.20;;;6.00;1.00;;;;;;5040427;28;20301;-82
2021/10/13 00:05:56;;;;;;;5.17;4.27;;;6.10;1.00;;;;;;5043289;28;20214;-83
2021/10/13 00:08:21;;;;;;;5.10;4.57;;;8.50;1.00;;;;;;5057127;28;20218;-83
2021/10/13 00:10:48;;;;;;;5.50;4.10;;;6.00;1.00;;;;;;5042979;28;20266;-83
2021/10/13 00:13:15;;;;;;;4.20;3.80;;;5.90;1.00;;;;;;5039304;28;20183;-83
2021/10/13 00:15:41;;;;;;;4.07;3.73;;;;;;;;;;5040689;28;20632;-83
2021/10/13 00:18:07;;;;;;;4.10;3.67;;;5.80;1.00;;;;;;5056000;28;20183;-83
2021/10/13 00:20:33;;;;;;;3.73;3.40;;;;;;;;;;5039388;28;20244;-83
2021/10/13 00:22:59;;;;;;;4.57;4.17;;;5.70;1.00;;;;;;5042030;28;20187;-82
2021/10/13 00:25:25;;;;;;;4.23;3.70;;;5.70;1.00;;;;;;5055973;28;20183;-82
2021/10/13 00:27:53;;;;;;;3.30;3.00;;;5.70;1.00;;;;;;5039447;28;20220;-83
2021/10/13 00:30:20;;;;;;;4.33;3.93;;;;;;;;;;5043251;28;20705;-83
2021/10/13 00:32:46;;;;;;;5.57;4.13;;;;;;;;;;5038783;28;20772;-83
2021/10/13 00:35:12;;;;;;;5.47;4.77;;;5.60;1.00;;;;;;5070002;28;20217;-83
2021/10/13 00:37:38;;;;;;;4.17;3.87;;;;;;;;;;5041056;28;20196;-83
2021/10/13 00:40:06;;;;;;;4.30;3.90;;;5.80;1.00;;;;;;5044212;28;20190;-82
2021/10/13 00:42:32;;;;;;;5.00;3.77;;;5.70;1.00;;;;;;5041221;28;20195;-83
2021/10/13 00:44:58;;;;;;;3.97;3.67;;;;;;;;;;5065493;28;20261;-82
2021/10/13 00:47:24;;;;;;;3.10;2.90;;;5.60;1.00;;;;;;5052440;28;20242;-82
2021/10/13 00:49:50;;;;;;;3.63;3.33;;;5.50;1.00;;;;;;5031688;28;20184;-82
2021/10/13 00:52:17;;;;;;;3.67;3.33;;;5.40;1.00;;;;;;5063805;28;20192;-82
2021/10/13 00:54:44;;;;;;;3.80;3.50;;;5.40;1.00;;;;;;5039322;28;20194;-83
2021/10/13 00:57:11;;;;;;;3.33;3.03;;;;;;;;;;5067216;28;20274;-83
2021/10/13 00:59:37;;;;;;;3.93;3.63;;;;;;;;;;5058448;28;20199;-83
2021/10/13 01:02:04;;;;;;;4.20;3.90;;;5.30;1.00;;;;;;5057581;28;20661;-83
2021/10/13 01:04:38;;;;;;;5.00;4.50;;;5.20;1.00;;;;;;5058523;28;20229;-83
2021/10/13 01:07:41;;;;;;;4.97;4.43;;;5.20;1.00;;;;;;5045365;28;20348;-83
2021/10/13 01:10:36;;;;;;;7.57;5.00;;;5.10;1.00;;;;;;5039663;28;20194;-83
2021/10/13 01:13:16;;;;;;;5.57;4.23;;;5.10;1.00;;;;;;5043415;28;20187;-83
2021/10/13 01:16:17;;;;;;;6.67;5.20;;;5.10;1.00;;;;;;5040387;28;20203;-83
2021/10/13 01:19:11;;;;;;;4.80;4.30;;;5.10;1.00;;;;;;5041749;28;20213;-83
2021/10/13 01:22:01;;;;;;;4.40;4.00;;;5.00;1.00;;;;;;5029445;28;20208;-83
2021/10/13 01:24:41;;;;;;;6.20;4.73;;;5.00;1.00;;;;;;5061356;28;20202;-83
2021/10/13 01:27:37;;;;;;;5.20;4.70;;;5.00;1.00;;;;;;5060903;28;20274;-84
2021/10/13 01:30:06;;;;;;;4.57;4.17;;;5.10;1.00;;;;;;5058912;28;20203;-83
2021/10/13 01:32:36;;;;;;;5.70;4.43;;;5.10;1.00;;;;;;5072028;28;20234;-83
2021/10/13 01:35:04;;;;;;;6.67;4.70;;;5.10;1.00;;;;;;5077574;28;20229;-82
2021/10/13 01:37:42;;;;;;;5.10;4.60;;;;;;;;;;5041797;28;20233;-84
2021/10/13 01:40:13;;;;;;;5.10;4.43;;;5.20;1.00;;;;;;5039813;28;20291;-83
2021/10/13 01:42:42;;;;;;;4.73;4.33;;;5.20;1.00;;;;;;5041185;28;20258;-83
2021/10/13 01:45:10;;;;;;;7.27;4.77;;;5.40;1.00;;;;;;5035730;28;20269;-83
2021/10/13 01:47:38;;;;;;;5.87;4.50;;;5.40;1.00;;;;;;5047445;28;20253;-82
2021/10/13 01:50:05;;;;;;;5.83;4.77;;;5.40;1.00;;;;;;5067880;28;20187;-82
2021/10/13 01:52:33;;;;;;;5.73;4.57;;;5.40;1.00;;;;;;5052869;28;20261;-82
2021/10/13 01:55:02;;;;;;;4.23;3.90;;;5.40;1.00;;;;;;5029738;28;20741;-82
2021/10/13 01:57:30;;;;;;;4.97;4.53;;;5.60;1.00;;;;;;5042953;28;20207;-83
2021/10/13 01:59:59;;;;;;;6.73;4.47;;;5.60;1.00;;;;;;5056256;28;20199;-82
2021/10/13 02:02:29;;;;;;;7.07;4.70;;;5.60;1.00;;;;;;5055665;28;20201;-82
2021/10/13 02:04:56;;;;;;;5.17;4.67;;;5.60;1.00;;;;;;5046926;28;20742;-82
2021/10/13 02:07:23;;;;;;;5.00;4.50;;;5.60;1.00;;;;;;5077691;28;20207;-82
2021/10/13 02:09:52;;;;;;;7.27;4.67;;;5.80;1.00;;;;;;5038065;28;20198;-82
2021/10/13 02:12:19;;;;;;;5.73;4.67;;;5.70;1.00;;;;;;5070424;28;20634;-83
2021/10/13 02:14:45;;;;;;;5.07;4.57;;;5.70;1.00;;;;;;5067213;28;20651;-84
2021/10/13 02:17:12;;;;;;;4.17;3.77;;;7.90;1.00;;;;;;5045276;28;20179;-84
2021/10/13 02:19:40;;;;;;;6.97;4.47;;;5.70;1.00;;;;;;5049217;28;20180;-84
2021/10/13 02:22:07;;;;;;;5.70;4.67;;;5.70;1.00;;;;;;5031151;28;20218;-84
2021/10/13 02:24:44;;;;;;;7.70;5.10;;;5.80;1.00;;;;;;5045492;28;20195;-84
2021/10/13 02:27:14;;;;;;;4.93;4.53;;;5.80;1.00;;;;;;5051611;28;20211;-84
2021/10/13 02:29:40;;;;;;;4.37;3.97;;;8.40;1.00;;;;;;5038351;28;20648;-84
2021/10/13 02:32:08;;;;;;;4.87;4.37;;;5.80;1.00;;;;;;5037325;28;20228;-85
2021/10/13 02:34:37;;;;;;;5.57;5.07;;;5.90;1.00;;;;;;5047816;28;20176;-84
2021/10/13 02:37:03;;;;;;;5.63;4.80;;;;;;;;;;5051171;28;20187;-84
2021/10/13 02:39:29;;;;;;;5.43;4.93;;;6.20;1.00;;;;;;5039878;28;20187;-84
2021/10/13 02:41:54;;;;;;;4.77;4.37;;;6.60;1.00;;;;;;5068834;28;20191;-84
2021/10/13 02:44:20;;;;;;;4.40;4.00;;;6.20;1.00;;;;;;5056278;28;20238;-84
2021/10/13 02:46:46;;;;;;;5.37;4.73;;;;;;;;;;5052933;28;20204;-84
2021/10/13 02:49:26;;;;;;;5.33;4.80;;;6.20;1.00;;;;;;5056365;28;20305;-84
2021/10/13 02:52:19;;;;;;;7.70;4.63;;;6.20;1.00;;;;;;5038420;28;20184;-84
2021/10/13 02:55:00;;;;;;;4.73;4.33;;;6.20;1.00;;;;;;5052527;28;20201;-84
2021/10/13 02:57:38;;;;;;;5.00;4.33;;;6.20;1.00;;;;;;5043908;28;20183;-84
2021/10/13 03:00:08;;;;;;;5.80;4.70;;;6.30;1.00;;;;;;5035862;28;20215;-84
2021/10/13 03:03:06;;;;;;;5.60;4.67;;;6.30;1.00;;;;;;5038336;28;20185;-84
2021/10/13 03:05:34;;;;;;;5.93;4.03;;;6.40;1.00;;;;;;5047215;28;20217;-85
2021/10/13 03:08:10;;;;;;;5.30;4.57;;;6.40;1.00;;;;;;5060030;28;20191;-84
2021/10/13 03:10:38;;;;;;;4.87;4.47;;;6.50;1.00;;;;;;5031870;28;20213;-84
2021/10/13 03:13:07;;;;;;;4.70;4.27;;;6.60;1.00;;;;;;5053997;28;20185;-84
2021/10/13 03:15:33;;;;;;;6.23;4.30;;;6.60;1.00;;;;;;5034464;28;20203;-84
2021/10/13 03:18:00;;;;;;;4.83;4.43;;;;;;;;;;5035243;28;20180;-85
2021/10/13 03:20:28;;;;;;;4.50;4.10;;;6.60;1.00;;;;;;5045649;28;20187;-84
2021/10/13 03:22:57;;;;;;;6.80;4.60;;;6.60;1.00;;;;;;5030640;28;20202;-84
2021/10/13 03:25:28;;;;;;;6.20;4.50;;;6.60;1.00;;;;;;5052916;28;20191;-84
2021/10/13 03:27:54;;;;;;;4.53;4.13;;;6.60;1.00;;;;;;5037333;28;20302;-84
2021/10/13 03:30:20;;;;;;;5.00;4.50;;;;;;;;;;5048201;28;20209;-84
2021/10/13 03:32:47;;;;;;;6.70;4.77;;;6.60;1.00;;;;;;5037003;28;20198;-84
2021/10/13 03:35:24;;;;;;;5.67;5.17;;;6.70;1.00;;;;;;5048792;28;20232;-84
2021/10/13 03:37:51;;;;;;;5.03;4.53;;;6.70;1.00;;;;;;5026899;28;20865;-85
2021/10/13 03:40:16;;;;;;;5.27;4.63;;;6.80;1.00;;;;;;5049399;28;20195;-83
2021/10/13 03:42:43;;;;;;;5.13;4.60;;;6.80;1.00;;;;;;5054744;28;20638;-84
2021/10/13 03:45:12;;;;;;;5.73;5.07;;;6.80;1.00;;;;;;5036961;28;20195;-84
2021/10/13 03:47:38;;;;;;;6.37;5.33;;;;;;;;;;5045916;28;20212;-83
2021/10/13 03:50:05;;;;;;;7.10;5.30;;;6.70;1.00;;;;;;5047902;28;20183;-85
2021/10/13 03:52:31;;;;;;;5.00;4.40;;;;;;;;;;5048187;28;20243;-83
2021/10/13 03:54:56;;;;;;;5.60;5.10;;;6.80;1.00;;;;;;5040797;28;20635;-84
2021/10/13 03:57:22;;;;;;;5.80;5.30;;;6.80;1.00;;;;;;5052314;28;20543;-84
2021/10/13 03:59:48;;;;;;;6.23;4.67;;;;;;;;;;5051126;28;20182;-84
2021/10/13 04:02:14;;;;;;;5.10;4.67;;;;;;;;;;5037240;28;20187;-84
2021/10/13 04:04:40;;;;;;;5.70;5.20;;;6.90;1.00;;;;;;5037137;28;20231;-84
2021/10/13 04:07:05;;;;;;;5.53;4.70;;;6.90;1.00;;;;;;5053061;28;20229;-84
2021/10/13 04:09:31;;;;;;;5.30;4.80;;;;;;;;;;5038018;28;20187;-84
2021/10/13 04:11:57;;;;;;;5.47;4.53;;;7.00;1.00;;;;;;5032373;28;20179;-84
2021/10/13 04:14:23;;;;;;;6.60;4.80;;;;;;;;;;5051474;28;20236;-84
2021/10/13 04:16:48;;;;;;;5.40;5.00;;;7.00;1.00;;;;;;5038197;28;20193;-84
2021/10/13 04:19:14;;;;;;;5.17;4.30;;;7.10;1.00;;;;;;5036285;28;20192;-84
2021/10/13 04:21:40;;;;;;;5.77;4.30;;;;;;;;;;5071022;28;20184;-84
2021/10/13 04:24:06;;;;;;;5.13;4.63;;;;;;;;;;5053243;28;20183;-84
2021/10/13 04:26:32;;;;;;;4.57;4.17;;;7.10;1.00;;;;;;5031995;28;20307;-84
2021/10/13 04:28:57;;;;;;;4.93;4.47;;;7.00;1.00;;;;;;5047655;28;20651;-84
2021/10/13 04:31:23;;;;;;;5.27;4.77;;;7.00;1.00;;;;;;5035322;28;20185;-84
2021/10/13 04:33:48;;;;;;;6.07;4.90;;;7.00;1.00;;;;;;5037869;28;20189;-84
2021/10/13 04:36:14;;;;;;;5.47;4.53;;;7.00;1.00;;;;;;5034860;28;20187;-84
2021/10/13 04:38:40;;;;;;;5.00;4.57;;;;;;;;;;5056112;28;20195;-84
2021/10/13 04:41:06;;;;;;;5.37;4.33;;;;;;;;;;5031660;28;20199;-84
2021/10/13 04:43:32;;;;;;;5.67;5.07;;;;;;;;;;5036031;28;20282;-85
2021/10/13 04:45:58;;;;;;;5.80;4.87;;;7.10;1.00;;;;;;5035661;28;20210;-85
2021/10/13 04:48:23;;;;;;;5.07;4.60;;;7.10;1.00;;;;;;5049563;28;20226;-84
2021/10/13 04:50:49;;;;;;;5.23;4.67;;;7.40;1.00;;;;;;5034807;28;20579;-85
2021/10/13 04:53:15;;;;;;;5.70;5.20;;;7.10;1.00;;;;;;5067896;28;20240;-84
2021/10/13 04:55:40;;;;;;;6.20;5.70;;;9.40;1.00;;;;;;5054485;28;20187;-84
2021/10/13 04:58:06;;;;;;;5.57;5.00;;;;;;;;;;5057745;28;20197;-84
2021/10/13 05:00:32;;;;;;;6.00;5.50;;;;;;;;;;5038073;28;20191;-84
2021/10/13 05:02:58;;;;;;;6.70;6.10;;;7.10;1.00;;;;;;5037603;28;20222;-84
2021/10/13 05:05:23;;;;;;;6.00;5.50;;;7.10;1.00;;;;;;5054787;28;20200;-84
2021/10/13 05:07:49;;;;;;;6.47;5.90;;;;;;;;;;5044441;28;20211;-85
2021/10/13 05:10:16;;;;;;;6.80;5.90;;;7.20;1.00;;;;;;5039944;28;20195;-85
2021/10/13 05:12:41;;;;;;;6.37;5.77;;;7.10;1.00;;;;;;5055101;28;20525;-84
2021/10/13 05:15:07;;;;;;;5.77;5.07;;;8.50;1.00;;;;;;5036873;28;20186;-85
2021/10/13 05:17:33;;;;;;;6.37;5.67;;;7.10;1.00;;;;;;5036420;28;20541;-83
2021/10/13 05:19:59;;;;;;;6.20;5.70;;;;;;;;;;5045064;28;20192;-84
2021/10/13 05:22:25;;;;;;;7.10;5.60;;;;;;;;;;5060168;28;20186;-85
2021/10/13 05:24:51;;;;;;;6.70;6.00;;;;;;;;;;5031350;28;20195;-84
2021/10/13 05:27:17;;;;;;;6.57;5.27;;;;;;;;;;5038918;28;20196;-84
2021/10/13 05:29:43;;;;;;;6.87;5.77;;;7.20;1.00;;;;;;5038185;28;20725;-84
2021/10/13 05:32:09;;;;;;;6.23;5.63;;;;;;;;;;5054541;28;20201;-85
2021/10/13 05:34:35;;;;;;;7.37;6.27;;;;;;;;;;5040166;28;20186;-84
2021/10/13 05:37:01;;;;;;;6.23;5.63;;;7.30;1.00;;;;;;5035816;28;20293;-84
2021/10/13 05:39:26;;;;;;;6.50;5.90;;;7.30;1.00;;;;;;5052182;28;20225;-84
2021/10/13 05:41:52;;;;;;;7.00;6.30;;;7.20;1.00;;;;;;5033150;28;20192;-85
2021/10/13 05:44:18;;;;;;;7.97;5.87;;;;;;;;;;5036829;28;20190;-82
2021/10/13 05:46:44;;;;;;;7.40;6.80;;;;;;;;;;5044038;28;20652;-83
2021/10/13 05:49:10;;;;;;;6.27;5.67;;;7.30;1.00;;;;;;5053074;28;20193;-82
2021/10/13 05:51:36;;;;;;;6.77;6.17;;;;;;;;;;5054686;28;20251;-81
2021/10/13 05:54:02;;;;;;;7.90;6.10;;;7.40;1.00;;;;;;5062156;28;20245;-83
2021/10/13 05:56:28;;;;;;;8.13;7.33;;;;;;;;;;5055167;28;20187;-83
2021/10/13 05:58:55;;;;;;;8.13;6.70;;;;;;;;;;5041727;28;20198;-80
2021/10/13 06:01:21;;;;;;;7.10;6.40;;;;;;;;;;5042787;28;20249;-81
2021/10/13 06:03:47;;;;;;;8.23;7.23;;;;;;;;;;5047063;28;20359;-80
2021/10/13 06:06:15;;;;;;;9.80;6.80;;;7.50;1.00;;;;;;5043369;28;20321;-80
2021/10/13 06:08:44;;;;;;;9.37;7.43;;;7.60;1.00;;;;;;5049793;28;20654;-80
2021/10/13 06:11:11;;;;;;;9.23;7.33;;;7.50;1.00;;;;;;5053720;28;20659;-79
2021/10/13 06:13:36;;;;;;;7.57;6.87;;;7.50;1.00;;;;;;5067639;28;20610;-79
2021/10/13 06:16:03;;;;;;;8.10;7.40;;;7.60;1.00;;;;;;5046234;28;20196;-80
2021/10/13 06:18:29;;;;;;;11.33;8.07;;;9.50;1.00;;;;;;5041613;28;20198;-80
2021/10/13 06:20:55;;;;;;;9.03;8.23;;;;;;;;;;5042615;28;20184;-80
2021/10/13 06:23:21;;;;;;;8.73;7.83;;;;;;;;;;5042796;28;20199;-80
2021/10/13 06:25:46;;;;;;;10.23;8.47;;;7.60;1.00;;;;;;5054679;28;20253;-80
2021/10/13 06:28:12;;;;;;;11.10;9.13;;;;;;;;;;5055906;28;20232;-80
2021/10/13 06:30:38;;;;;;;10.77;9.40;;;;;;;;;;5034199;28;20247;-80
2021/10/13 06:33:06;;;;;;;10.40;9.37;;;7.90;1.00;;;;;;5040388;28;20266;-80
2021/10/13 06:35:31;;;;;;;10.17;9.17;;;10.90;1.00;;;;;;5042112;28;20183;-80
2021/10/13 06:37:57;;;;;;;10.63;8.90;;;8.10;1.00;;;;;;5045830;28;20205;-81
2021/10/13 06:40:23;;;;;;;9.33;8.43;;;10.70;1.00;;;;;;5038767;28;20281;-81
2021/10/13 06:42:49;;;;;;;11.30;10.17;;;;;;;;;;5033827;28;20211;-81
2021/10/13 06:45:16;;;;;;;11.73;10.40;;;8.40;1.00;;;;;;5039942;28;20573;-80
2021/10/13 06:47:41;;;;;;;13.90;10.77;;;8.40;1.00;;;;;;5060095;28;20209;-80
2021/10/13 06:50:09;;;;;;;13.07;11.00;;;8.50;1.00;;;;;;5041268;28;20218;-81
2021/10/13 06:52:34;;;;;;;16.00;11.93;;;8.70;1.00;;;;;;5033621;28;20210;-79
2021/10/13 06:55:00;;;;;;;13.77;12.40;;;12.70;1.00;;;;;;5041304;28;20188;-81
2021/10/13 06:57:26;;;;;;;19.03;13.20;;;8.90;1.00;;;;;;5050879;28;20186;-80
2021/10/13 06:59:51;;;;;;;15.20;13.00;;;11.00;1.00;;;;;;5054528;28;20274;-80
2021/10/13 07:02:17;;;;;;;15.23;12.93;;;9.00;1.00;;;;;;5040726;28;20196;-80
2021/10/13 07:04:43;;;;;;;15.40;13.80;;;9.00;1.00;;;;;;5040360;28;20223;-80
2021/10/13 07:07:09;;;;;;;14.67;13.17;;;11.30;1.00;;;;;;5051735;28;20334;-80
2021/10/13 07:09:35;;;;;;;19.60;13.70;;;8.90;1.00;;;;;;5033068;28;20177;-80
2021/10/13 07:12:00;;;;;;;16.53;14.67;;;;;;;;;;5038853;28;20187;-80
2021/10/13 07:14:27;;;;;;;17.03;14.43;;;9.00;1.00;;;;;;5039889;28;20183;-80
2021/10/13 07:16:53;;;;;;;15.80;14.13;;;9.10;1.00;;;;;;5036687;28;20206;-80
2021/10/13 07:19:19;;;;;;;14.90;13.40;;;9.00;1.00;;;;;;5038175;28;20210;-79
2021/10/13 07:21:44;;;;;;;14.00;12.53;;;;;;;;;;5036365;28;20184;-77
2021/10/13 07:24:10;;;;;;;14.53;13.13;;;9.10;1.00;;;;;;5030970;28;20285;-79
2021/10/13 07:26:36;;;;;;;15.30;13.70;;;9.20;1.00;;;;;;5029356;28;20643;-78
2021/10/13 07:29:03;;;;;;;14.93;13.33;;;9.30;1.00;;;;;;5044867;28;20218;-78
2021/10/13 07:31:29;;;;;;;12.73;11.50;;;9.40;1.00;;;;;;5041720;28;20303;-77
2021/10/13 07:33:55;;;;;;;13.40;12.17;;;9.60;1.00;;;;;;5037635;28;20219;-77
2021/10/13 07:36:21;;;;;;;12.63;10.87;;;9.70;1.00;;;;;;5063483;28;20226;-77
2021/10/13 07:38:47;;;;;;;13.47;11.33;;;9.80;1.00;;;;;;5028360;28;20188;-79
2021/10/13 07:41:16;;;;;;;12.37;11.07;;;10.00;1.00;;;;;;5053688;28;20303;-80
2021/10/13 07:43:42;;;;;;;13.83;10.67;;;10.10;1.00;;;;;;5021852;28;20199;-80
2021/10/13 07:46:09;;;;;;;11.70;9.40;;;;;;;;;;5050830;28;20303;-79
2021/10/13 07:48:34;;;;;;;8.83;7.10;;;10.30;1.00;;;;;;5052358;28;20285;-79
2021/10/13 07:51:01;;;;;;;8.57;7.67;;;;;;;;;;5031742;28;20248;-80
2021/10/13 07:53:27;;;;;;;8.90;8.10;;;10.50;1.00;;;;;;5032570;28;20179;-81
2021/10/13 07:55:52;;;;;;;8.57;7.87;;;10.60;1.00;;;;;;5035380;28;20249;-81
2021/10/13 07:58:18;;;;;;;9.07;8.17;;;;;;;;;;5055507;28;20198;-81
2021/10/13 08:00:44;;;;;;;9.90;7.80;;;11.00;1.00;;;;;;5038953;28;20193;-81
2021/10/13 08:03:11;;;;;;;8.87;7.77;;;11.00;1.00;;;;;;5038858;28;20694;-81
2021/10/13 08:05:37;;;;;;;8.30;7.50;;;;;;;;;;5039108;28;20206;-80
2021/10/13 08:08:03;;;;;;;8.07;7.37;;;10.90;1.00;;;;;;5041776;28;20220;-80
2021/10/13 08:10:29;;;;;;;8.53;7.47;;;10.80;1.00;;;;;;5063245;28;20565;-79
2021/10/13 08:12:54;;;;;;;7.80;7.07;;;12.80;1.00;;;;;;5042842;28;20181;-80
2021/10/13 08:15:21;;;;;;;8.17;7.43;;;;;;;;;;5050821;28;20210;-79
2021/10/13 08:17:46;;;;;;;9.23;8.33;;;10.60;1.00;;;;;;5035097;28;20195;-79
2021/10/13 08:20:13;;;;;;;12.80;8.50;;;10.60;1.00;;;;;;5036951;28;20196;-81
2021/10/13 08:22:40;;;;;;;8.27;7.37;;;10.80;1.00;;;;;;5043381;28;20187;-81
2021/10/13 08:25:07;;;;;;;8.47;7.53;;;10.70;1.00;;;;;;5057458;28;20195;-81
2021/10/13 08:27:33;;;;;;;8.57;7.67;;;10.70;1.00;;;;;;5035541;28;20215;-81
2021/10/13 08:29:59;;;;;;;9.10;7.40;;;;;;;;;;5040345;28;20191;-81
2021/10/13 08:32:25;;;;;;;7.80;7.20;;;10.70;1.00;;;;;;5036789;28;20195;-78
2021/10/13 08:34:51;;;;;;;8.60;7.57;;;10.70;1.00;;;;;;5035196;28;20190;-79
2021/10/13 08:37:16;;;;;;;7.37;6.77;;;10.90;1.00;;;;;;5030616;28;20584;-79
2021/10/13 08:39:43;;;;;;;8.17;7.03;;;11.30;1.00;;;;;;5045063;28;20198;-79
2021/10/13 08:42:10;;;;;;;8.93;6.40;;;11.20;1.00;;;;;;5036657;28;20199;-79
2021/10/13 08:44:42;;;;;;;7.63;6.47;;;11.40;1.00;;;;;;5050655;28;20195;-79
2021/10/13 08:47:12;;;;;;;7.07;6.37;;;11.40;1.00;;;;;;5050628;28;20240;-78
2021/10/13 08:49:39;;;;;;;7.03;6.30;;;11.60;1.00;;;;;;5034394;28;20601;-79
2021/10/13 08:52:09;;;;;;;6.17;5.67;;;11.70;1.00;;;;;;5032539;28;20186;-79
2021/10/13 08:54:35;;;;;;;5.37;4.80;;;11.70;1.00;;;;;;5051865;28;20183;-79
2021/10/13 08:57:01;;;;;;;6.33;5.73;;;11.80;1.00;;;;;;5053863;28;20212;-79
2021/10/13 08:59:42;;;;;;;6.33;5.43;;;11.90;1.00;;;;;;5032656;28;20244;-79
2021/10/13 09:02:09;;;;;;;5.73;5.13;;;11.90;1.00;;;;;;5034319;28;20221;-79
2021/10/13 09:04:35;;;;;;;5.37;4.87;;;12.00;1.00;;;;;;5031625;28;20300;-79
2021/10/13 09:07:03;;;;;;;5.60;5.10;;;11.90;1.00;;;;;;5029533;28;20264;-80
2021/10/13 09:09:29;;;;;;;5.57;4.93;;;11.90;1.00;;;;;;5058282;28;20183;-80
2021/10/13 09:11:55;;;;;;;5.53;5.13;;;;;;;;;;5037245;28;20659;-81
2021/10/13 09:14:29;;;;;;;6.10;5.03;;;11.50;1.00;;;;;;5060702;28;20182;-79
2021/10/13 09:17:09;;;;;;;5.33;4.83;;;11.60;1.00;;;;;;5033110;28;20196;-79
2021/10/13 09:19:43;;;;;;;5.40;4.90;;;11.50;1.00;;;;;;5034292;28;20218;-80
2021/10/13 09:22:11;;;;;;;4.40;4.07;;;11.60;1.00;;;;;;5035650;28;20191;-79
2021/10/13 09:24:43;;;;;;;4.23;3.83;;;11.70;1.00;;;;;;5030115;28;20285;-78
2021/10/13 09:27:24;;;;;;;4.80;4.40;;;11.90;1.00;;;;;;5032960;28;20206;-79
2021/10/13 09:29:51;;;;;;;4.70;4.30;;;11.90;1.00;;;;;;5034950;28;20213;-80
2021/10/13 09:32:26;;;;;;;6.03;4.10;;;12.00;1.00;;;;;;5039442;28;20209;-81
2021/10/13 09:34:52;;;;;;;4.17;3.77;;;12.40;1.00;;;;;;5054023;28;20197;-81
2021/10/13 09:37:18;;;;;;;4.50;4.00;;;14.30;1.00;;;;;;5038569;28;20186;-81
2021/10/13 09:39:56;;;;;;;4.53;4.13;;;12.70;1.00;;;;;;5039875;28;20211;-80
2021/10/13 09:42:21;;;;;;;5.53;4.70;;;12.70;1.00;;;;;;5041848;28;20241;-79
2021/10/13 09:44:56;;;;;;;4.93;4.40;;;12.70;1.00;;;;;;5031178;28;20635;-79
2021/10/13 09:47:55;;;;;;;5.50;4.30;;;12.90;1.00;;;;;;5054857;28;20727;-79
2021/10/13 09:50:21;;;;;;;5.27;4.37;;;13.20;1.00;;;;;;5034022;28;20335;-80
2021/10/13 09:52:47;;;;;;;4.30;3.20;;;12.90;1.00;;;;;;5066173;28;20219;-82
2021/10/13 09:55:14;;;;;;;3.73;3.40;;;12.80;1.00;;;;;;5058157;28;20197;-82
2021/10/13 09:57:45;;;;;;;3.90;3.50;;;12.80;1.00;;;;;;5052306;28;20235;-80
2021/10/13 10:00:23;;;;;;;3.33;3.03;;;12.80;1.00;;;;;;5037747;28;20192;-79
2021/10/13 10:02:57;;;;;;;5.30;3.70;;;12.80;1.00;;;;;;5032474;28;20205;-79
2021/10/13 10:05:31;;;;;;;3.70;3.40;;;12.80;1.00;;;;;;5054406;28;20333;-79
2021/10/13 10:08:06;;;;;;;3.30;3.10;;;12.90;1.00;;;;;;5049898;28;20672;-79
2021/10/13 10:10:33;;;;;;;4.00;3.70;;;12.90;1.00;;;;;;5036873;28;20219;-81
2021/10/13 10:13:07;;;;;;;3.17;2.90;;;12.90;1.00;;;;;;5056386;28;20656;-80
2021/10/13 10:15:37;;;;;;;3.10;2.90;;;13.20;1.00;;;;;;5037354;28;20185;-80
2021/10/13 10:18:38;;;;;;;3.33;3.10;;;13.60;1.00;;;;;;5072583;28;20247;-80
2021/10/13 10:21:22;;;;;;;3.23;2.97;;;13.40;1.00;;;;;;5047743;28;20232;-80
2021/10/13 10:24:18;;;;;;;5.13;3.27;;;13.30;1.00;;;;;;5053879;28;20220;-80
2021/10/13 10:26:44;;;;;;;3.43;3.13;;;;;;;;;;5053465;28;21069;-80
2021/10/13 10:29:13;;;;;;;3.30;3.00;;;13.40;1.00;;;;;;5039569;28;20215;-79
2021/10/13 10:31:42;;;;;;;3.70;3.27;;;13.80;1.00;;;;;;5039447;28;20194;-81
2021/10/13 10:34:08;;;;;;;4.00;3.60;;;;;;;;;;5034110;28;20189;-81
2021/10/13 10:36:39;;;;;;;3.73;3.30;;;13.70;1.00;;;;;;5058363;28;20656;-81
2021/10/13 10:39:10;;;;;;;3.50;3.20;;;14.30;1.00;;;;;;5041730;28;20205;-80
2021/10/13 10:41:42;;;;;;;3.50;3.20;;;13.60;1.00;;;;;;5039952;28;20646;-80
2021/10/13 10:44:29;;;;;;;10.10;3.77;;;13.50;1.00;;;;;;5037705;28;20243;-80
2021/10/13 10:47:07;;;;;;;3.57;3.10;;;13.40;1.00;;;;;;5052318;28;20215;-80
2021/10/13 10:49:51;;;;;;;2.70;2.50;;;13.50;1.00;;;;;;5032818;28;20572;-80
2021/10/13 10:52:20;;;;;;;5.33;3.20;;;13.80;1.00;;;;;;5051954;28;20189;-80
2021/10/13 10:54:53;;;;;;;3.03;2.73;;;13.90;1.00;;;;;;5033888;28;20206;-80
2021/10/13 10:57:44;;;;;;;3.33;3.03;;;13.70;1.00;;;;;;5033627;28;20262;-81
2021/10/13 11:00:20;;;;;;;3.33;3.03;;;14.00;1.00;;;;;;5048518;28;20277;-80
2021/10/13 11:02:48;;;;;;;4.40;3.53;;;14.40;1.00;;;;;;5034845;28;20795;-81
2021/10/13 11:05:13;;;;;;;3.30;2.97;;;14.40;1.00;;;;;;5052064;28;20295;-80
2021/10/13 11:07:42;;;;;;;3.83;2.87;;;14.60;1.00;;;;;;5029448;28;20230;-80
2021/10/13 11:10:13;;;;;;;2.73;2.53;;;14.70;1.00;;;;;;5037002;28;20197;-78
2021/10/13 11:12:52;;;;;;;3.23;2.93;;;16.30;1.00;;;;;;5030155;28;24982;-81
2021/10/13 11:15:22;;;;;;;3.90;3.30;;;15.20;1.00;;;;;;5054015;28;20175;-80
2021/10/13 11:17:49;;;;;;;3.63;3.33;;;15.00;1.00;;;;;;5032781;28;20237;-81
2021/10/13 11:20:18;;;;;;;3.53;3.23;;;15.30;1.00;;;;;;5053390;28;20244;-80
2021/10/13 11:22:44;;;;;;;4.20;3.30;;;15.20;1.00;;;;;;5039967;28;20232;-80
2021/10/13 11:25:14;;;;;;;4.70;4.07;;;14.80;1.00;;;;;;5035721;28;20190;-80
2021/10/13 11:27:41;;;;;;;4.37;3.93;;;14.60;1.00;;;;;;5032666;28;20207;-80
2021/10/13 11:30:20;;;;;;;5.10;4.30;;;14.30;1.00;;;;;;5048206;28;20277;-78
2021/10/13 11:32:47;;;;;;;4.90;3.90;;;14.00;1.00;;;;;;5031943;28;20205;-78
2021/10/13 11:35:15;;;;;;;4.30;3.87;;;13.70;1.00;;;;;;5058876;28;20260;-77
2021/10/13 11:37:53;;;;;;;3.40;3.20;;;13.50;1.00;;;;;;5041439;28;20192;-78
2021/10/13 11:40:21;;;;;;;5.13;3.77;;;13.30;1.00;;;;;;5031603;28;20190;-78
2021/10/13 11:42:48;;;;;;;3.83;3.50;;;13.00;1.00;;;;;;5022279;28;20241;-78
2021/10/13 11:45:19;;;;;;;3.30;3.00;;;12.80;1.00;;;;;;5034333;28;20724;-77
2021/10/13 11:47:45;;;;;;;3.27;2.97;;;12.70;1.00;;;;;;5031063;28;20214;-77
2021/10/13 11:50:14;;;;;;;3.10;2.80;;;12.60;1.00;;;;;;5025663;28;20266;-77
2021/10/13 11:52:41;;;;;;;3.47;3.17;;;12.50;1.00;;;;;;5022629;28;20197;-77
2021/10/13 11:55:13;;;;;;;3.20;2.97;;;12.40;1.00;;;;;;5048350;28;20183;-77
2021/10/13 11:57:42;;;;;;;3.50;3.20;;;12.40;1.00;;;;;;5030871;28;20556;-77
2021/10/13 12:00:21;;;;;;;3.70;3.40;;;12.50;1.00;;;;;;5030299;28;20274;-77
2021/10/13 12:03:06;;;;;;;3.07;2.50;;;13.00;1.00;;;;;;5027469;28;20636;-78
2021/10/13 12:05:39;;;;;;;1.90;1.80;;;13.00;1.00;;;;;;5027603;28;20228;-78
2021/10/13 12:08:08;;;;;;;3.20;2.40;;;13.20;1.00;;;;;;5027034;28;20228;-76
2021/10/13 12:10:36;;;;;;;2.90;1.97;;;13.50;1.00;;;;;;5022389;28;20265;-77
2021/10/13 12:13:10;;;;;;;3.00;2.33;;;13.50;1.00;;;;;;5029115;28;20200;-78
2021/10/13 12:15:36;;;;;;;1.90;1.67;;;13.90;1.00;;;;;;5045307;28;20182;-78
2021/10/13 12:18:08;;;;;;;3.40;2.83;;;13.90;1.00;;;;;;5026066;28;20556;-78
2021/10/13 12:20:34;;;;;;;2.70;2.47;;;13.60;1.00;;;;;;5031982;28;20236;-78
2021/10/13 12:23:09;;;;;;;3.50;2.53;;;14.30;1.00;;;;;;5032621;28;20194;-78
2021/10/13 12:25:35;;;;;;;2.80;2.60;;;14.30;1.00;;;;;;5052486;28;20191;-78
2021/10/13 12:28:01;;;;;;;2.67;2.47;;;15.30;1.00;;;;;;5039819;28;20238;-77
2021/10/13 12:30:34;;;;;;;2.23;2.03;;;15.90;1.00;;;;;;5020624;28;20178;-77
2021/10/13 12:33:18;;;;;;;2.43;2.23;;;15.60;1.00;;;;;;5030267;28;20183;-78
2021/10/13 12:35:45;;;;;;;2.77;2.40;;;15.70;1.00;;;;;;5022732;28;21979;-78
2021/10/13 12:38:21;;;;;;;2.30;2.10;;;17.10;1.00;;;;;;5047551;28;20236;-79
2021/10/13 12:41:19;;;;;;;2.23;2.10;;;18.00;1.00;;;;;;5031326;28;20658;-79
2021/10/13 12:43:50;;;;;;;2.55;2.35;;;19.90;1.00;;;;;;5018817;28;20306;-82
2021/10/13 12:46:20;;;;;;;1.98;1.77;;;20.60;1.00;;;;;;5035858;28;20214;-83
2021/10/13 12:48:46;;;;;;;3.05;2.63;;;20.80;1.00;;;;;;5041865;28;20195;-84
2021/10/13 12:51:12;;;;;;;3.03;2.30;;;21.50;1.00;;;;;;5036188;28;20183;-81
2021/10/13 12:53:38;;;;;;;3.22;2.33;;;20.70;1.00;;;;;;5037006;28;20197;-80
2021/10/13 12:56:06;;;;;;;3.80;2.35;;;20.10;1.00;;;;;;5064921;28;20215;-79
2021/10/13 12:58:32;;;;;;;3.57;2.87;;;18.30;1.00;;;;;;5036303;28;20178;-79
2021/10/13 13:00:58;;;;;;;3.47;3.27;;;16.80;1.00;;;;;;5052017;28;20278;-79
2021/10/13 13:03:24;;;;;;;2.93;2.70;;;;;;;;;;5035410;28;20226;-80
2021/10/13 13:05:50;;;;;;;2.83;2.23;;;16.60;1.00;;;;;;5054156;28;20380;-79
2021/10/13 13:08:16;;;;;;;1.87;1.77;;;17.90;1.00;;;;;;5034959;28;20225;-81
2021/10/13 13:10:42;;;;;;;2.87;2.57;;;18.50;1.00;;;;;;5030352;28;20201;-79
2021/10/13 13:13:08;;;;;;;2.73;2.23;;;19.20;1.00;;;;;;5033667;28;20181;-79
2021/10/13 13:15:34;;;;;;;2.60;2.40;;;18.90;1.00;;;;;;5034576;28;20186;-78
2021/10/13 13:17:59;;;;;;;2.93;2.50;;;17.60;1.00;;;;;;5046324;28;20223;-77
2021/10/13 13:20:25;;;;;;;2.73;2.53;;;;;;;;;;5029291;28;20766;-78
2021/10/13 13:22:51;;;;;;;3.43;3.03;;;16.10;1.00;;;;;;5034303;28;20275;-76
2021/10/13 13:25:17;;;;;;;3.07;2.77;;;15.70;1.00;;;;;;5034697;28;20208;-78
2021/10/13 13:27:42;;;;;;;4.70;3.30;;;15.40;1.00;;;;;;5037998;28;20218;-77